Time;durP1;ratioP1;P1;durP2;ratioP2;P2;SDS_P1;SDS_P2;PMS_P1;PMS_P2;Temp;Humidity;BMP_temperature;BMP_pressure;BME280_temperature;BME280_humidity;BME280_pressure;Samples;Min_cycle;Max_cycle;Signal;HPM_P1;HPM_P2
2022/03/27 00:02:05;;;;;;;22.48;16.63;;;9.60;99.90;;;;;;4965432;28;20476;-72
2022/03/27 00:04:32;;;;;;;21.02;16.77;;;9.50;99.90;;;;;;4949219;28;20375;-71
2022/03/27 00:06:59;;;;;;;19.50;16.02;;;9.50;99.90;;;;;;4981791;28;20145;-70
2022/03/27 00:09:26;;;;;;;24.65;17.73;;;9.50;99.90;;;;;;4966349;28;20117;-72
2022/03/27 00:11:53;;;;;;;21.15;17.02;;;9.40;99.90;;;;;;4971982;28;20046;-73
2022/03/27 00:14:19;;;;;;;20.15;17.00;;;9.50;99.90;;;;;;4982851;28;20050;-74
2022/03/27 00:16:46;;;;;;;21.92;16.83;;;9.40;99.90;;;;;;4985825;28;20050;-73
2022/03/27 00:19:13;;;;;;;20.52;16.27;;;9.40;99.90;;;;;;5002355;28;20279;-73
2022/03/27 00:21:42;;;;;;;20.55;16.63;;;9.30;99.90;;;;;;4984887;28;20490;-74
2022/03/27 00:24:09;;;;;;;21.02;15.95;;;9.20;99.90;;;;;;4993009;28;20120;-73
2022/03/27 00:26:35;;;;;;;21.55;17.23;;;9.20;99.90;;;;;;4968836;28;20055;-72
2022/03/27 00:29:02;;;;;;;22.73;17.50;;;9.10;99.90;;;;;;4965102;28;20050;-73
2022/03/27 00:31:35;;;;;;;25.25;18.75;;;9.00;99.90;;;;;;4982220;28;20390;-72
2022/03/27 00:34:05;;;;;;;23.60;17.33;;;8.80;99.90;;;;;;4983938;28;20042;-74
2022/03/27 00:36:32;;;;;;;21.38;17.33;;;8.80;99.90;;;;;;4965069;28;20074;-73
2022/03/27 00:38:58;;;;;;;26.13;18.75;;;8.70;99.90;;;;;;4982737;28;20054;-75
2022/03/27 00:41:25;;;;;;;27.77;20.10;;;8.60;99.90;;;;;;4971578;28;20053;-75
2022/03/27 00:43:52;;;;;;;27.88;21.20;;;8.60;99.90;;;;;;4989490;28;20350;-74
2022/03/27 00:46:19;;;;;;;26.98;19.83;;;8.50;99.90;;;;;;4981597;28;20062;-74
2022/03/27 00:48:46;;;;;;;29.02;21.15;;;8.60;99.90;;;;;;4983097;28;20038;-72
2022/03/27 00:51:13;;;;;;;24.35;20.25;;;8.50;99.90;;;;;;4964915;28;20073;-75
2022/03/27 00:53:40;;;;;;;31.92;22.67;;;8.50;99.90;;;;;;4982657;28;20081;-75
2022/03/27 00:56:06;;;;;;;36.88;24.30;;;8.30;99.90;;;;;;4982330;28;20146;-73
2022/03/27 00:58:33;;;;;;;27.45;22.23;;;8.30;99.90;;;;;;4982359;28;20054;-74
2022/03/27 01:01:24;;;;;;;31.70;22.92;;;8.20;99.90;;;;;;4963553;28;20050;-75
2022/03/27 01:03:57;;;;;;;30.83;23.25;;;8.00;99.90;;;;;;4983126;28;20050;-74
2022/03/27 01:06:25;;;;;;;28.80;21.65;;;8.00;99.90;;;;;;4963883;28;20077;-70
2022/03/27 01:11:37;;;;;;;26.55;21.30;;;7.90;99.90;;;;;;4964113;28;20167;-72
2022/03/27 01:14:04;;;;;;;35.50;24.55;;;7.80;99.90;;;;;;4969905;28;20089;-72
2022/03/27 01:16:42;;;;;;;30.10;22.20;;;7.80;99.90;;;;;;4980625;28;20058;-72
2022/03/27 01:19:12;;;;;;;27.88;22.75;;;7.70;99.90;;;;;;4963955;28;20058;-71
2022/03/27 01:21:42;;;;;;;27.58;22.10;;;7.60;99.90;;;;;;4964426;28;20042;-71
2022/03/27 01:24:09;;;;;;;28.92;22.98;;;7.60;99.90;;;;;;4964756;28;20070;-70
2022/03/27 01:26:37;;;;;;;29.80;22.63;;;7.60;99.90;;;;;;4981898;28;20054;-71
2022/03/27 01:29:05;;;;;;;31.55;21.60;;;7.50;99.90;;;;;;4964405;28;20054;-71
2022/03/27 01:31:34;;;;;;;27.38;20.45;;;7.40;99.90;;;;;;4955425;28;20038;-72
2022/03/27 01:34:01;;;;;;;29.20;19.40;;;7.30;99.90;;;;;;4964223;28;20081;-72
2022/03/27 01:36:36;;;;;;;26.05;18.80;;;7.40;99.90;;;;;;4981195;28;20050;-71
2022/03/27 01:39:09;;;;;;;28.30;20.77;;;7.30;99.90;;;;;;4981743;28;20050;-70
2022/03/27 01:41:37;;;;;;;25.90;19.85;;;7.30;99.90;;;;;;4989231;28;20540;-71
2022/03/27 01:44:06;;;;;;;28.75;21.00;;;7.20;99.90;;;;;;4967025;28;20596;-71
2022/03/27 01:46:35;;;;;;;28.52;21.45;;;7.10;99.90;;;;;;4963452;28;20050;-72
2022/03/27 01:49:04;;;;;;;27.27;22.55;;;7.00;99.90;;;;;;4981609;28;20453;-71
2022/03/27 01:51:31;;;;;;;28.27;21.98;;;6.90;99.90;;;;;;4963674;28;20053;-72
2022/03/27 01:53:59;;;;;;;26.65;21.23;;;6.90;99.90;;;;;;4981832;28;20262;-73
2022/03/27 01:56:26;;;;;;;30.90;22.85;;;6.80;99.90;;;;;;4963243;28;20584;-71
2022/03/27 01:58:53;;;;;;;29.35;21.77;;;6.70;99.90;;;;;;4980609;28;20796;-71
2022/03/27 02:01:23;;;;;;;36.65;23.48;;;6.80;99.90;;;;;;4980782;28;20046;-71
2022/03/27 02:03:50;;;;;;;32.83;23.48;;;6.80;99.90;;;;;;4981381;28;20046;-72
2022/03/27 02:06:18;;;;;;;34.28;22.35;;;6.90;99.90;;;;;;4962468;28;20034;-73
2022/03/27 02:08:45;;;;;;;31.40;22.35;;;6.70;99.90;;;;;;4964058;28;20058;-72
2022/03/27 02:11:15;;;;;;;29.88;22.23;;;6.60;99.90;;;;;;4988330;28;20534;-73
2022/03/27 02:13:42;;;;;;;33.55;23.52;;;6.60;99.90;;;;;;4988563;28;20166;-73
2022/03/27 02:16:09;;;;;;;34.92;24.38;;;6.50;99.90;;;;;;4963854;28;20056;-71
2022/03/27 02:18:36;;;;;;;32.67;22.60;;;6.50;99.90;;;;;;4981141;28;20058;-72
2022/03/27 02:21:03;;;;;;;33.28;23.58;;;6.30;99.90;;;;;;4963640;28;20054;-72
2022/03/27 02:23:30;;;;;;;35.63;24.45;;;6.30;99.90;;;;;;4978821;28;20090;-73
2022/03/27 02:25:57;;;;;;;34.80;22.77;;;6.20;99.90;;;;;;4957883;28;20038;-72
2022/03/27 02:28:24;;;;;;;38.42;22.23;;;6.20;99.90;;;;;;4981056;28;20125;-72
2022/03/27 02:30:52;;;;;;;37.42;22.35;;;6.30;99.90;;;;;;4979944;28;20073;-72
2022/03/27 02:33:19;;;;;;;38.22;21.58;;;6.30;99.90;;;;;;4981132;28;20511;-73
2022/03/27 02:35:46;;;;;;;41.03;22.50;;;6.30;99.90;;;;;;4979617;28;20042;-71
2022/03/27 02:38:13;;;;;;;44.13;23.08;;;6.30;99.90;;;;;;4962755;28;20046;-70
2022/03/27 02:40:42;;;;;;;39.65;22.25;;;6.30;99.90;;;;;;4958156;28;20133;-75
2022/03/27 02:43:09;;;;;;;48.78;23.52;;;6.30;99.90;;;;;;4959662;28;20088;-73
2022/03/27 02:45:37;;;;;;;33.60;20.35;;;6.20;99.90;;;;;;4978450;28;20050;-72
2022/03/27 02:48:05;;;;;;;30.30;19.52;;;6.20;99.90;;;;;;4963503;28;20038;-72
2022/03/27 02:50:32;;;;;;;30.23;18.55;;;6.00;99.90;;;;;;4980396;28;20389;-72
2022/03/27 02:52:59;;;;;;;41.70;21.58;;;5.90;99.90;;;;;;4963661;28;20125;-73
2022/03/27 02:55:26;;;;;;;42.45;22.42;;;5.80;99.90;;;;;;4980013;28;20058;-71
2022/03/27 02:57:53;;;;;;;35.65;21.02;;;5.80;99.90;;;;;;4946408;28;20077;-73
2022/03/27 03:00:21;;;;;;;36.83;21.00;;;5.70;99.90;;;;;;4946317;28;20058;-71
2022/03/27 03:02:48;;;;;;;39.78;21.75;;;5.70;99.90;;;;;;4946924;28;20046;-73
2022/03/27 03:05:16;;;;;;;33.67;20.23;;;5.80;99.90;;;;;;4962271;28;20058;-72
2022/03/27 03:07:43;;;;;;;27.50;18.77;;;5.60;99.90;;;;;;4980279;28;20050;-72
2022/03/27 03:10:11;;;;;;;30.17;19.42;;;5.50;99.90;;;;;;4962278;28;20105;-71
2022/03/27 03:12:39;;;;;;;30.92;18.95;;;5.40;99.90;;;;;;4991377;28;20097;-71
2022/03/27 03:15:06;;;;;;;29.40;20.80;;;5.30;99.90;;;;;;4962887;28;20234;-70
2022/03/27 03:17:34;;;;;;;31.77;20.65;;;5.10;99.90;;;;;;4963136;28;20058;-73
2022/03/27 03:20:01;;;;;;;39.08;22.13;;;5.10;99.90;;;;;;4962859;28;20058;-72
2022/03/27 03:22:28;;;;;;;36.95;20.20;;;5.20;99.90;;;;;;4962351;28;20132;-73
2022/03/27 03:24:55;;;;;;;50.08;25.85;;;5.10;99.90;;;;;;4978946;28;20572;-73
2022/03/27 03:27:22;;;;;;;44.40;22.65;;;5.10;99.90;;;;;;4962613;28;20136;-72
2022/03/27 03:29:49;;;;;;;54.22;26.85;;;5.10;99.90;;;;;;4978842;28;20623;-71
2022/03/27 03:32:16;;;;;;;59.78;26.02;;;5.10;99.90;;;;;;4980671;28;20145;-72
2022/03/27 03:34:42;;;;;;;72.90;28.92;;;5.20;99.90;;;;;;4962506;28;20065;-72
2022/03/27 03:37:09;;;;;;;98.25;34.97;;;5.20;99.90;;;;;;4946883;28;20051;-71
2022/03/27 03:39:36;;;;;;;90.18;36.33;;;5.30;99.90;;;;;;4963194;28;20058;-74
2022/03/27 03:42:03;;;;;;;91.53;34.00;;;5.50;99.90;;;;;;4986665;28;20049;-73
2022/03/27 03:44:30;;;;;;;124.65;40.65;;;5.60;99.90;;;;;;4964432;28;20055;-73
2022/03/27 03:46:56;;;;;;;114.18;38.58;;;5.60;99.90;;;;;;4963283;28;20058;-73
2022/03/27 03:49:24;;;;;;;119.90;36.20;;;5.70;99.90;;;;;;4992305;28;20091;-72
2022/03/27 03:51:51;;;;;;;121.45;39.15;;;5.70;99.90;;;;;;4981815;28;20065;-73
2022/03/27 03:54:19;;;;;;;135.75;43.10;;;5.70;99.90;;;;;;4971162;28;20054;-73
2022/03/27 03:56:46;;;;;;;173.45;42.10;;;5.80;99.90;;;;;;4962175;28;20147;-72
2022/03/27 03:59:13;;;;;;;148.73;42.08;;;5.70;99.90;;;;;;4961653;28;20189;-72
2022/03/27 04:01:55;;;;;;;120.90;39.22;;;5.70;99.90;;;;;;4981811;28;20528;-73
2022/03/27 04:04:22;;;;;;;145.80;43.10;;;5.70;99.90;;;;;;4981570;28;20042;-73
2022/03/27 04:06:49;;;;;;;134.55;40.70;;;5.80;99.90;;;;;;4965057;28;20042;-72
2022/03/27 04:09:16;;;;;;;160.00;43.03;;;5.80;99.90;;;;;;4965788;28;20055;-72
2022/03/27 04:11:44;;;;;;;150.07;43.47;;;5.90;99.90;;;;;;4971668;28;20050;-72
2022/03/27 04:14:10;;;;;;;177.88;45.33;;;5.80;99.90;;;;;;4981276;28;20072;-71
2022/03/27 04:16:37;;;;;;;150.15;43.60;;;5.70;99.90;;;;;;4980164;28;20132;-73
2022/03/27 04:19:05;;;;;;;138.98;42.10;;;5.70;99.90;;;;;;4966490;28;20088;-72
2022/03/27 04:21:32;;;;;;;104.72;34.80;;;5.70;99.90;;;;;;4981850;28;20074;-73
2022/03/27 04:23:59;;;;;;;73.35;27.23;;;5.60;99.90;;;;;;4981826;28;20054;-72
2022/03/27 04:26:31;;;;;;;72.32;27.70;;;5.20;99.90;;;;;;4965431;28;20450;-71
2022/03/27 04:28:58;;;;;;;127.28;33.58;;;5.00;99.90;;;;;;4982694;28;20112;-72
2022/03/27 04:31:25;;;;;;;99.30;32.72;;;4.80;99.90;;;;;;4983019;28;20116;-72
2022/03/27 04:33:52;;;;;;;115.88;34.78;;;4.80;99.90;;;;;;4983690;28;20105;-73
2022/03/27 04:36:18;;;;;;;128.60;36.78;;;4.80;99.90;;;;;;4982741;28;20637;-73
2022/03/27 04:38:45;;;;;;;108.32;35.83;;;4.80;99.90;;;;;;4966208;28;20807;-73
2022/03/27 04:41:12;;;;;;;143.60;37.83;;;4.80;99.90;;;;;;4988786;28;20172;-73
2022/03/27 04:43:39;;;;;;;104.25;35.25;;;4.80;99.90;;;;;;4977259;28;20436;-72
2022/03/27 04:46:07;;;;;;;135.95;39.47;;;4.80;99.90;;;;;;5002911;28;20594;-73
2022/03/27 04:48:34;;;;;;;115.93;38.22;;;4.90;99.90;;;;;;4985156;28;20034;-73
2022/03/27 04:51:01;;;;;;;110.13;35.85;;;4.90;99.90;;;;;;4984307;28;20217;-70
2022/03/27 04:53:28;;;;;;;93.55;33.47;;;4.80;99.90;;;;;;4998518;28;20065;-73
2022/03/27 04:55:55;;;;;;;108.72;35.92;;;4.90;99.90;;;;;;4964305;28;20436;-74
2022/03/27 04:58:22;;;;;;;98.38;33.22;;;4.90;99.90;;;;;;4982849;28;20058;-72
2022/03/27 05:00:49;;;;;;;92.25;33.03;;;4.80;99.90;;;;;;4964642;28;20049;-73
2022/03/27 05:03:16;;;;;;;80.70;32.08;;;4.80;99.90;;;;;;4982705;28;20050;-71
2022/03/27 05:05:43;;;;;;;79.93;31.05;;;4.70;99.90;;;;;;4981084;28;20390;-72
2022/03/27 05:08:10;;;;;;;85.53;31.60;;;4.60;99.90;;;;;;4949574;28;20050;-71
2022/03/27 05:10:38;;;;;;;111.40;34.17;;;4.60;99.90;;;;;;4984625;28;20103;-73
2022/03/27 05:13:07;;;;;;;131.15;34.88;;;4.50;99.90;;;;;;4975664;28;20283;-73
2022/03/27 05:15:34;;;;;;;128.10;34.28;;;4.30;99.90;;;;;;4990470;28;20061;-72
2022/03/27 05:18:01;;;;;;;139.63;33.83;;;4.20;99.90;;;;;;4965507;28;20055;-71
2022/03/27 05:20:29;;;;;;;160.50;36.72;;;4.10;99.90;;;;;;4981904;28;20754;-73
2022/03/27 05:22:57;;;;;;;223.93;40.55;;;4.10;99.90;;;;;;4982637;28;20401;-72
2022/03/27 05:25:23;;;;;;;131.55;35.60;;;4.20;99.90;;;;;;4962696;28;20101;-72
2022/03/27 05:27:56;;;;;;;98.82;33.78;;;4.40;99.90;;;;;;4981857;28;20038;-71
2022/03/27 05:30:24;;;;;;;94.15;33.97;;;4.60;99.90;;;;;;4981567;28;20054;-74
2022/03/27 05:32:53;;;;;;;91.38;33.75;;;4.70;99.90;;;;;;4982263;28;20050;-70
2022/03/27 05:35:21;;;;;;;90.95;32.72;;;4.70;99.90;;;;;;4964760;28;20081;-73
2022/03/27 05:37:48;;;;;;;87.50;33.65;;;4.50;99.90;;;;;;4948515;28;20062;-73
2022/03/27 05:40:18;;;;;;;96.35;36.50;;;4.60;99.90;;;;;;4965009;28;20516;-72
2022/03/27 05:42:49;;;;;;;95.60;34.38;;;4.70;99.90;;;;;;4992628;28;20046;-73
2022/03/27 05:45:17;;;;;;;82.13;33.50;;;4.80;99.90;;;;;;5001285;28;20486;-71
2022/03/27 05:47:44;;;;;;;72.85;32.33;;;4.90;99.90;;;;;;4983812;28;20212;-72
2022/03/27 05:50:12;;;;;;;80.50;35.50;;;5.20;99.90;;;;;;4978975;28;20153;-71
2022/03/27 05:52:41;;;;;;;68.68;30.10;;;5.30;99.90;;;;;;4982537;28;20341;-72
2022/03/27 05:55:09;;;;;;;69.10;31.77;;;5.40;99.90;;;;;;4982445;28;20543;-71
2022/03/27 05:57:35;;;;;;;77.68;33.83;;;5.40;99.90;;;;;;4962950;28;20076;-71
2022/03/27 06:00:05;;;;;;;64.97;31.17;;;5.30;99.90;;;;;;4982342;28;20113;-72
2022/03/27 06:02:35;;;;;;;71.75;31.77;;;5.30;99.90;;;;;;4966127;28;20058;-72
2022/03/27 06:05:02;;;;;;;67.15;27.88;;;5.30;99.90;;;;;;4964184;28;20105;-71
2022/03/27 06:07:29;;;;;;;66.82;29.35;;;5.30;99.90;;;;;;4964588;28;20046;-72
2022/03/27 06:09:55;;;;;;;72.95;30.25;;;5.40;99.90;;;;;;4969166;28;20046;-71
2022/03/27 06:12:22;;;;;;;67.82;30.05;;;5.50;99.90;;;;;;4991251;28;20330;-71
2022/03/27 06:14:49;;;;;;;72.40;30.92;;;5.60;99.90;;;;;;4967615;28;20046;-72
2022/03/27 06:17:16;;;;;;;66.85;29.70;;;5.60;99.90;;;;;;4964648;28;20057;-72
2022/03/27 06:19:43;;;;;;;66.20;30.45;;;5.70;99.90;;;;;;4964225;28;20060;-71
2022/03/27 06:22:10;;;;;;;64.45;30.33;;;5.90;99.90;;;;;;4963650;28;20065;-70
2022/03/27 06:24:38;;;;;;;60.85;28.80;;;5.90;99.90;;;;;;4981094;28;20160;-71
2022/03/27 06:27:05;;;;;;;58.40;27.88;;;6.00;99.90;;;;;;4964880;28;20050;-71
2022/03/27 06:29:32;;;;;;;65.45;30.38;;;6.20;99.90;;;;;;4964016;28;20034;-71
2022/03/27 06:31:59;;;;;;;53.80;28.30;;;6.20;99.90;;;;;;4980925;28;20049;-71
2022/03/27 06:34:26;;;;;;;63.65;31.00;;;6.30;99.90;;;;;;4983475;28;20263;-70
2022/03/27 06:36:53;;;;;;;58.90;31.17;;;6.30;99.90;;;;;;4963273;28;20428;-72
2022/03/27 06:39:20;;;;;;;55.78;27.45;;;6.40;99.90;;;;;;4963002;28;20054;-72
2022/03/27 06:41:46;;;;;;;54.60;28.73;;;6.50;99.90;;;;;;4987806;28;20545;-70
2022/03/27 06:44:14;;;;;;;52.83;28.95;;;6.60;99.90;;;;;;4978443;28;20060;-72
2022/03/27 06:46:41;;;;;;;53.30;26.63;;;6.70;99.90;;;;;;4972865;28;20050;-70
2022/03/27 06:49:08;;;;;;;53.67;28.13;;;6.70;99.90;;;;;;4983018;28;20050;-71
2022/03/27 06:51:35;;;;;;;48.17;27.55;;;6.70;99.90;;;;;;4962111;28;20196;-71
2022/03/27 06:54:02;;;;;;;48.92;27.48;;;6.80;99.90;;;;;;4963132;28;20089;-73
2022/03/27 06:56:29;;;;;;;51.72;28.65;;;6.90;99.90;;;;;;4980115;28;20046;-72
2022/03/27 06:58:55;;;;;;;52.55;28.17;;;6.90;99.90;;;;;;4962725;28;20057;-71
2022/03/27 07:04:09;;;;;;;52.03;28.15;;;7.10;99.90;;;;;;4962889;28;20055;-72
2022/03/27 07:06:38;;;;;;;52.83;28.35;;;7.20;99.90;;;;;;4977740;28;20043;-73
2022/03/27 07:09:05;;;;;;;53.33;28.02;;;7.30;99.90;;;;;;4980063;28;20050;-72
2022/03/27 07:11:32;;;;;;;52.55;28.02;;;7.50;99.90;;;;;;4967760;28;20061;-72
2022/03/27 07:13:58;;;;;;;50.20;28.15;;;7.60;99.90;;;;;;4975800;28;20066;-72
2022/03/27 07:16:26;;;;;;;52.00;28.30;;;7.70;99.90;;;;;;4973872;28;20050;-71
2022/03/27 07:18:53;;;;;;;51.03;26.83;;;7.80;99.90;;;;;;4979860;28;20425;-71
2022/03/27 07:21:20;;;;;;;46.38;27.42;;;7.80;99.90;;;;;;4979391;28;20101;-72
2022/03/27 07:23:47;;;;;;;49.00;28.35;;;7.80;99.90;;;;;;4962984;28;20129;-71
2022/03/27 07:26:17;;;;;;;46.78;27.90;;;7.80;99.90;;;;;;4962105;28;20531;-72
2022/03/27 07:28:43;;;;;;;51.40;28.65;;;8.00;99.90;;;;;;4962118;28;20632;-72
2022/03/27 07:31:11;;;;;;;46.30;26.45;;;8.00;99.90;;;;;;4979810;28;20808;-72
2022/03/27 07:33:38;;;;;;;52.60;27.70;;;8.00;99.90;;;;;;4979860;28;20136;-73
2022/03/27 07:36:05;;;;;;;50.63;26.65;;;8.00;99.90;;;;;;4964148;28;20583;-71
2022/03/27 07:38:32;;;;;;;46.92;28.00;;;7.80;99.90;;;;;;4969643;28;20049;-72
2022/03/27 07:41:00;;;;;;;49.15;27.92;;;7.70;99.90;;;;;;4978191;28;20648;-73
2022/03/27 07:43:27;;;;;;;50.47;28.42;;;7.70;99.90;;;;;;4995164;28;20118;-73
2022/03/27 07:45:54;;;;;;;48.67;26.75;;;7.90;99.90;;;;;;4987302;28;20049;-70
2022/03/27 07:48:20;;;;;;;51.75;27.25;;;8.00;99.90;;;;;;4988644;28;20053;-72
2022/03/27 07:50:54;;;;;;;48.05;28.95;;;8.20;99.90;;;;;;5003207;28;20181;-72
2022/03/27 07:53:21;;;;;;;47.22;26.75;;;8.40;99.90;;;;;;4982523;28;20540;-71
2022/03/27 07:55:48;;;;;;;48.17;27.75;;;8.50;99.90;;;;;;4983337;28;20154;-71
2022/03/27 07:58:15;;;;;;;44.97;27.35;;;8.50;99.90;;;;;;4965972;28;20141;-73
2022/03/27 08:00:42;;;;;;;48.40;27.55;;;8.70;99.90;;;;;;4965505;28;20054;-71
2022/03/27 08:03:09;;;;;;;46.22;27.48;;;8.80;99.90;;;;;;4983376;28;20463;-71
2022/03/27 08:05:37;;;;;;;46.05;27.73;;;9.10;99.90;;;;;;4983545;28;20105;-72
2022/03/27 08:08:04;;;;;;;42.75;26.98;;;9.40;99.90;;;;;;4983317;28;20042;-72
2022/03/27 08:10:31;;;;;;;42.72;27.25;;;9.60;99.90;;;;;;4965356;28;20209;-71
2022/03/27 08:12:59;;;;;;;37.00;25.65;;;9.70;99.90;;;;;;4994889;28;20104;-73
2022/03/27 08:15:26;;;;;;;39.38;25.45;;;9.70;99.90;;;;;;5003185;28;20535;-72
2022/03/27 08:17:54;;;;;;;37.45;24.02;;;9.80;99.90;;;;;;4990605;28;20473;-73
2022/03/27 08:20:23;;;;;;;38.75;25.70;;;9.90;99.90;;;;;;4981830;28;20065;-72
2022/03/27 08:22:50;;;;;;;39.78;26.83;;;10.20;99.90;;;;;;4969465;28;20085;-72
2022/03/27 08:26:55;;;;;;;39.40;26.45;;;10.30;99.90;;;;;;4964171;28;20074;-72
2022/03/27 08:28:04;;;;;;;38.97;25.65;;;10.30;99.90;;;;;;4964753;28;20046;-71
2022/03/27 08:30:31;;;;;;;38.17;26.17;;;10.40;99.90;;;;;;4980551;28;20517;-71
2022/03/27 08:32:58;;;;;;;37.83;26.88;;;10.30;99.90;;;;;;4982872;28;20065;-73
2022/03/27 08:35:25;;;;;;;38.83;27.70;;;10.40;99.90;;;;;;4964744;28;20153;-72
2022/03/27 08:37:52;;;;;;;39.28;28.50;;;10.50;99.90;;;;;;4982801;28;20513;-71
2022/03/27 08:40:20;;;;;;;38.70;27.67;;;10.60;99.90;;;;;;4966122;28;20230;-73
2022/03/27 08:42:47;;;;;;;38.50;28.52;;;10.70;99.90;;;;;;4992397;28;20049;-73
2022/03/27 08:45:14;;;;;;;38.72;28.42;;;10.90;99.90;;;;;;4984322;28;20034;-73
2022/03/27 08:47:41;;;;;;;36.42;28.65;;;11.00;99.90;;;;;;4984586;28;20053;-72
2022/03/27 08:50:31;;;;;;;37.78;27.75;;;10.90;99.90;;;;;;4968257;28;20733;-70
2022/03/27 08:53:00;;;;;;;38.88;29.65;;;10.90;99.90;;;;;;4976626;28;20562;-73
2022/03/27 08:55:29;;;;;;;41.58;28.08;;;10.90;99.90;;;;;;4979474;28;20046;-72
2022/03/27 08:58:00;;;;;;;38.25;27.65;;;10.90;99.90;;;;;;4963859;28;20085;-71
2022/03/27 09:00:29;;;;;;;40.60;26.23;;;10.90;99.90;;;;;;4979079;28;20129;-71
2022/03/27 09:02:58;;;;;;;38.95;26.63;;;10.80;99.90;;;;;;4964806;28;20153;-73
2022/03/27 09:05:26;;;;;;;37.85;25.38;;;10.80;99.90;;;;;;4963522;28;20053;-73
2022/03/27 09:07:55;;;;;;;40.35;27.02;;;10.90;99.90;;;;;;4963743;28;20128;-71
2022/03/27 09:10:27;;;;;;;37.75;27.63;;;10.90;99.90;;;;;;4986999;28;20050;-72
2022/03/27 09:12:56;;;;;;;38.97;26.98;;;11.00;99.90;;;;;;4972224;28;20101;-72
2022/03/27 09:15:23;;;;;;;40.53;27.25;;;11.00;99.90;;;;;;4968458;28;20644;-72
2022/03/27 09:18:04;;;;;;;37.15;27.58;;;11.10;99.90;;;;;;4967315;28;20038;-72
2022/03/27 09:20:42;;;;;;;38.33;28.05;;;11.00;99.90;;;;;;4982513;28;20081;-72
2022/03/27 09:23:12;;;;;;;38.03;27.20;;;11.10;99.90;;;;;;4985661;28;20051;-72
2022/03/27 09:25:44;;;;;;;37.63;27.50;;;11.20;99.90;;;;;;4962841;28;20042;-73
2022/03/27 09:28:11;;;;;;;39.47;28.40;;;11.20;99.90;;;;;;4963799;28;20117;-71
2022/03/27 09:30:38;;;;;;;40.03;28.27;;;11.20;99.90;;;;;;4984983;28;20085;-74
2022/03/27 09:33:05;;;;;;;36.03;26.35;;;11.30;99.90;;;;;;4980362;28;20295;-73
2022/03/27 09:35:33;;;;;;;38.83;28.90;;;11.30;99.90;;;;;;4963534;28;20084;-72
2022/03/27 09:38:10;;;;;;;42.22;28.20;;;11.40;99.90;;;;;;4974757;28;20053;-72
2022/03/27 09:40:37;;;;;;;40.38;30.05;;;11.50;99.90;;;;;;4964174;28;20058;-72
2022/03/27 09:43:11;;;;;;;36.15;26.63;;;11.60;99.90;;;;;;4968505;28;20127;-74
2022/03/27 09:45:38;;;;;;;41.30;30.25;;;11.50;99.90;;;;;;4963607;28;20042;-73
2022/03/27 09:48:09;;;;;;;40.80;28.92;;;11.40;99.90;;;;;;4982683;28;20131;-73
2022/03/27 09:50:38;;;;;;;38.70;26.50;;;11.40;99.90;;;;;;4981656;28;20097;-71
2022/03/27 09:53:19;;;;;;;35.50;27.17;;;11.50;99.90;;;;;;4983532;28;20050;-73
2022/03/27 09:56:01;;;;;;;32.17;24.40;;;11.40;99.90;;;;;;4979591;28;20054;-72
2022/03/27 09:58:47;;;;;;;29.98;23.50;;;11.50;99.90;;;;;;4980513;28;20066;-73
2022/03/27 10:01:22;;;;;;;25.90;21.88;;;11.70;99.90;;;;;;4964256;28;20511;-71
2022/03/27 10:04:03;;;;;;;27.42;22.08;;;11.70;99.90;;;;;;4984900;28;20519;-73
2022/03/27 10:06:37;;;;;;;26.70;22.70;;;11.90;99.90;;;;;;4961097;28;20104;-73
2022/03/27 10:09:05;;;;;;;24.17;21.58;;;12.00;99.90;;;;;;4966240;28;20070;-74
2022/03/27 10:11:34;;;;;;;25.85;21.73;;;12.00;99.90;;;;;;4980396;28;20042;-75
2022/03/27 10:14:03;;;;;;;26.48;23.33;;;12.10;99.90;;;;;;4988700;28;20050;-74
2022/03/27 10:16:36;;;;;;;24.27;21.77;;;12.10;99.90;;;;;;4979560;28;20136;-73
2022/03/27 10:19:06;;;;;;;22.95;20.73;;;12.10;99.90;;;;;;4976965;28;20300;-74
2022/03/27 10:21:34;;;;;;;22.33;20.13;;;12.10;99.90;;;;;;4959895;28;20070;-73
2022/03/27 10:24:04;;;;;;;23.85;21.20;;;12.00;99.90;;;;;;4980403;28;20042;-73
2022/03/27 10:26:37;;;;;;;23.30;20.98;;;12.10;99.90;;;;;;4962067;28;20169;-71
2022/03/27 10:29:05;;;;;;;24.63;22.13;;;12.00;99.90;;;;;;4962707;28;20069;-73
2022/03/27 10:31:32;;;;;;;24.20;21.40;;;12.00;99.90;;;;;;4942897;28;20047;-72
2022/03/27 10:34:01;;;;;;;25.52;23.02;;;12.10;99.90;;;;;;4960883;28;20055;-73
2022/03/27 10:36:43;;;;;;;28.70;23.38;;;12.40;99.90;;;;;;4952120;28;20073;-72
2022/03/27 10:39:29;;;;;;;27.70;23.45;;;12.50;99.90;;;;;;4980059;28;20109;-72
2022/03/27 10:42:26;;;;;;;26.83;23.92;;;12.30;99.90;;;;;;4969062;28;20187;-74
2022/03/27 10:45:18;;;;;;;26.42;23.77;;;12.60;99.90;;;;;;4842115;23;20133;-72
2022/03/27 10:48:09;;;;;;;25.10;22.50;;;12.60;99.90;;;;;;4997955;28;20088;-73
2022/03/27 10:50:51;;;;;;;24.55;22.13;;;12.70;99.90;;;;;;4967778;28;20061;-73
2022/03/27 10:53:23;;;;;;;23.98;21.58;;;12.70;99.90;;;;;;4991912;28;20092;-72
2022/03/27 10:55:52;;;;;;;23.48;21.17;;;12.70;99.90;;;;;;4961928;28;20539;-73
2022/03/27 10:58:32;;;;;;;24.15;21.88;;;12.80;99.90;;;;;;4963102;28;20104;-72
2022/03/27 11:01:03;;;;;;;22.25;20.05;;;12.80;99.90;;;;;;4979560;28;20050;-74
2022/03/27 11:04:04;;;;;;;22.45;20.35;;;12.70;99.90;;;;;;4979595;28;20054;-73
2022/03/27 11:06:37;;;;;;;24.17;21.92;;;12.90;99.90;;;;;;4978269;28;20049;-73
2022/03/27 11:09:06;;;;;;;25.55;23.35;;;12.90;99.90;;;;;;4962859;28;20188;-71
2022/03/27 11:11:44;;;;;;;25.40;23.00;;;12.80;99.90;;;;;;4970864;28;20157;-72
2022/03/27 11:14:22;;;;;;;25.50;23.25;;;12.70;99.90;;;;;;4967531;28;20116;-72
2022/03/27 11:17:07;;;;;;;25.55;23.17;;;12.60;99.90;;;;;;4966605;28;20150;-74
2022/03/27 11:19:46;;;;;;;29.35;26.88;;;13.00;99.90;;;;;;4949987;28;20054;-73
2022/03/27 11:22:47;;;;;;;29.02;26.63;;;13.40;99.90;;;;;;4985980;28;20186;-73
2022/03/27 11:25:34;;;;;;;27.70;25.38;;;13.60;99.90;;;;;;4966528;28;20285;-73
2022/03/27 11:28:07;;;;;;;30.10;27.33;;;13.60;99.90;;;;;;4967359;28;20050;-73
2022/03/27 11:30:55;;;;;;;31.17;28.63;;;13.50;99.90;;;;;;4965979;28;20221;-74
2022/03/27 11:33:23;;;;;;;27.65;25.38;;;13.40;99.90;;;;;;4927543;28;20147;-72
2022/03/27 11:36:02;;;;;;;30.05;27.45;;;13.70;99.90;;;;;;4983017;28;20054;-74
2022/03/27 11:38:36;;;;;;;28.42;26.13;;;14.00;99.90;;;;;;4967195;28;20062;-74
2022/03/27 11:41:25;;;;;;;30.75;28.45;;;14.10;99.90;;;;;;4963964;28;20137;-75
2022/03/27 11:43:54;;;;;;;28.83;26.50;;;14.40;99.90;;;;;;4978023;28;20050;-74
2022/03/27 11:46:28;;;;;;;30.88;28.52;;;14.60;99.90;;;;;;4966112;28;20137;-73
2022/03/27 11:48:57;;;;;;;31.08;28.92;;;14.70;99.90;;;;;;4975316;28;20072;-72
2022/03/27 11:51:25;;;;;;;30.55;28.25;;;14.80;99.90;;;;;;4993081;28;20049;-74
2022/03/27 11:53:53;;;;;;;30.55;28.35;;;14.70;99.90;;;;;;4982058;28;20248;-75
2022/03/27 11:56:21;;;;;;;30.40;28.20;;;14.70;99.90;;;;;;4965993;28;20042;-74
2022/03/27 11:59:05;;;;;;;29.77;27.73;;;14.90;99.90;;;;;;4966010;28;20105;-73
2022/03/27 12:01:32;;;;;;;29.95;27.95;;;15.00;99.90;;;;;;4964753;28;20105;-72
2022/03/27 12:03:59;;;;;;;31.48;29.13;;;15.20;99.90;;;;;;4983211;28;20155;-72
2022/03/27 12:06:28;;;;;;;29.17;27.23;;;15.20;99.90;;;;;;4981361;28;20117;-73
2022/03/27 12:08:56;;;;;;;31.00;28.95;;;15.10;99.90;;;;;;4983696;28;20250;-73
2022/03/27 12:11:26;;;;;;;29.20;27.17;;;15.00;99.90;;;;;;4972235;28;20372;-73
2022/03/27 12:13:53;;;;;;;29.95;27.80;;;14.70;99.90;;;;;;4954084;28;20099;-72
2022/03/27 12:16:25;;;;;;;29.23;26.90;;;14.70;99.90;;;;;;4981689;28;20042;-71
2022/03/27 12:18:53;;;;;;;29.98;27.88;;;15.20;99.90;;;;;;4965814;28;20086;-71
2022/03/27 12:21:22;;;;;;;31.00;28.80;;;15.50;99.90;;;;;;4972153;28;20130;-72
2022/03/27 12:24:04;;;;;;;30.00;28.10;;;15.90;99.90;;;;;;4967597;28;20038;-73
2022/03/27 12:29:49;;;;;;;30.75;28.70;;;16.20;99.90;;;;;;4965138;28;20054;-73
2022/03/27 12:32:19;;;;;;;29.33;27.55;;;16.40;99.90;;;;;;4981027;28;20157;-72
2022/03/27 12:34:55;;;;;;;31.33;29.23;;;16.30;99.90;;;;;;4982729;28;20058;-73
2022/03/27 12:37:23;;;;;;;30.00;27.98;;;16.20;99.90;;;;;;4962217;28;20389;-72
2022/03/27 12:39:50;;;;;;;31.08;29.17;;;16.30;99.90;;;;;;4964069;28;20066;-73
2022/03/27 12:42:44;;;;;;;29.02;27.23;;;16.20;99.90;;;;;;4972660;28;20296;-73
2022/03/27 12:45:17;;;;;;;30.20;28.23;;;16.40;99.90;;;;;;4965313;28;20050;-74
2022/03/27 12:47:52;;;;;;;30.55;28.63;;;16.60;99.90;;;;;;4965213;28;20054;-74
2022/03/27 12:50:25;;;;;;;28.42;26.65;;;16.70;99.90;;;;;;4945817;28;20735;-73
2022/03/27 12:52:57;;;;;;;28.65;26.92;;;16.70;99.90;;;;;;4981869;28;20046;-73
2022/03/27 12:55:26;;;;;;;27.55;25.98;;;16.70;99.90;;;;;;4980676;28;20121;-73